Time;durP1;ratioP1;P1;durP2;ratioP2;P2;SDS_P1;SDS_P2;PMS_P1;PMS_P2;Temp;Humidity;BMP_temperature;BMP_pressure;BME280_temperature;BME280_humidity;BME280_pressure;Samples;Min_cycle;Max_cycle;Signal;HPM_P1;HPM_P2
2022/04/09 03:01:40;;;;;;;0.47;0.30;;;17.40;47.20;;;;;;5357588;23;45813;-64
2022/04/09 03:04:06;;;;;;;0.50;0.40;;;17.40;47.20;;;;;;4905699;28;45820;-64
2022/04/09 03:06:32;;;;;;;0.30;0.22;;;17.30;47.20;;;;;;4909535;28;45519;-60
2022/04/09 03:08:58;;;;;;;0.20;0.20;;;17.30;47.20;;;;;;4910974;28;45718;-64
2022/04/09 03:11:23;;;;;;;0.35;0.30;;;17.30;47.20;;;;;;4948403;28;45252;-65
2022/04/09 03:13:49;;;;;;;0.28;0.28;;;17.30;47.20;;;;;;4916580;28;45221;-65
2022/04/09 03:16:15;;;;;;;0.40;0.30;;;17.30;47.20;;;;;;4925322;28;45398;-65
2022/04/09 03:18:40;;;;;;;0.40;0.30;;;17.30;47.20;;;;;;4938337;28;45030;-65
2022/04/09 03:21:06;;;;;;;0.50;0.38;;;17.30;47.20;;;;;;4935057;28;46252;-65
2022/04/09 03:23:31;;;;;;;0.38;0.30;;;17.30;47.20;;;;;;4915832;28;44713;-64
2022/04/09 03:25:57;;;;;;;0.40;0.40;;;17.30;47.20;;;;;;4924836;28;45333;-64
2022/04/09 03:28:23;;;;;;;0.30;0.30;;;17.30;47.10;;;;;;4931562;28;46139;-64
2022/04/09 03:30:49;;;;;;;0.30;0.30;;;17.30;47.20;;;;;;4915934;28;47141;-64
2022/04/09 03:33:14;;;;;;;0.55;0.30;;;17.30;47.20;;;;;;4927635;28;45177;-64
2022/04/09 03:35:40;;;;;;;0.50;0.40;;;17.30;47.20;;;;;;4939322;28;44987;-62
2022/04/09 03:38:06;;;;;;;0.40;0.40;;;17.20;47.10;;;;;;4937778;28;45367;-64
2022/04/09 03:40:31;;;;;;;1.52;0.40;;;17.30;47.10;;;;;;4914062;28;45236;-63
2022/04/09 03:42:57;;;;;;;0.30;0.30;;;17.30;47.10;;;;;;4940638;28;44953;-64
2022/04/09 03:45:23;;;;;;;0.60;0.40;;;17.30;47.10;;;;;;4940946;28;44741;-64
2022/04/09 03:47:48;;;;;;;0.35;0.28;;;17.20;47.10;;;;;;4938248;28;45329;-63
2022/04/09 03:50:14;;;;;;;0.32;0.28;;;17.20;47.10;;;;;;4921161;28;45850;-64
2022/04/09 03:52:40;;;;;;;0.55;0.35;;;17.20;47.10;;;;;;4933767;28;45367;-64
2022/04/09 03:55:07;;;;;;;0.65;0.40;;;17.20;47.10;;;;;;4919441;28;45265;-65
2022/04/09 03:57:32;;;;;;;0.57;0.50;;;17.20;47.10;;;;;;4934007;28;45744;-64
2022/04/09 03:59:58;;;;;;;0.70;0.45;;;17.20;47.10;;;;;;4938968;28;45594;-65
2022/04/09 04:02:24;;;;;;;0.40;0.40;;;17.20;47.10;;;;;;4952570;28;44737;-64
2022/04/09 04:04:49;;;;;;;0.40;0.40;;;17.20;47.10;;;;;;4933640;28;45483;-63
2022/04/09 04:07:20;;;;;;;0.38;0.38;;;17.20;47.20;;;;;;4944596;28;44839;-62
2022/04/09 04:09:46;;;;;;;0.22;0.22;;;17.20;47.10;;;;;;4959138;28;45292;-64
2022/04/09 04:12:11;;;;;;;0.57;0.38;;;17.10;47.00;;;;;;4942106;28;45486;-64
2022/04/09 04:14:37;;;;;;;0.40;0.40;;;17.10;47.00;;;;;;4955511;28;45258;-64
2022/04/09 04:17:03;;;;;;;0.68;0.30;;;17.10;47.00;;;;;;4958466;28;45127;-64
2022/04/09 04:19:29;;;;;;;0.30;0.28;;;17.10;47.10;;;;;;4959043;28;45285;-64
2022/04/09 04:21:54;;;;;;;0.88;0.55;;;17.10;47.10;;;;;;4933252;28;44956;-64
2022/04/09 04:24:20;;;;;;;0.35;0.30;;;17.10;47.10;;;;;;4953715;28;45225;-65
2022/04/09 04:26:45;;;;;;;0.57;0.45;;;17.10;47.10;;;;;;4952437;28;45171;-64
2022/04/09 04:29:11;;;;;;;0.47;0.30;;;17.10;47.10;;;;;;4955117;28;46826;-63
2022/04/09 04:31:36;;;;;;;0.43;0.40;;;17.10;47.10;;;;;;4932939;28;45437;-65
2022/04/09 04:34:02;;;;;;;0.40;0.40;;;17.10;47.10;;;;;;4939397;28;45510;-64
2022/04/09 04:36:28;;;;;;;0.55;0.50;;;17.10;47.10;;;;;;4956884;28;44783;-64
2022/04/09 04:38:54;;;;;;;0.30;0.30;;;17.00;47.20;;;;;;4958165;28;45967;-62
2022/04/09 04:41:19;;;;;;;0.40;0.38;;;17.00;47.20;;;;;;4950813;28;45261;-64
2022/04/09 04:43:49;;;;;;;0.50;0.50;;;17.00;47.10;;;;;;4956663;28;46846;-62
2022/04/09 04:46:14;;;;;;;0.32;0.32;;;17.00;47.10;;;;;;4939945;28;44843;-62
2022/04/09 04:48:40;;;;;;;0.47;0.30;;;17.00;47.00;;;;;;4938204;28;45848;-64
2022/04/09 04:51:06;;;;;;;0.40;0.40;;;17.00;47.00;;;;;;4956285;28;45160;-66
2022/04/09 04:53:31;;;;;;;0.30;0.28;;;17.00;47.10;;;;;;4955119;28;45531;-63
2022/04/09 04:55:57;;;;;;;0.52;0.50;;;17.00;47.10;;;;;;4952151;28;45240;-61
2022/04/09 04:58:22;;;;;;;1.75;0.30;;;17.00;47.00;;;;;;4955869;28;44956;-64
2022/04/09 05:00:48;;;;;;;1.20;0.38;;;17.00;47.00;;;;;;4953226;28;45660;-62
2022/04/09 05:03:15;;;;;;;1.00;0.68;;;17.00;47.00;;;;;;4941496;28;45712;-64
2022/04/09 05:05:40;;;;;;;0.28;0.28;;;17.00;47.00;;;;;;4954790;28;44692;-61
2022/04/09 05:08:06;;;;;;;0.65;0.45;;;17.00;47.00;;;;;;4943313;28;45181;-64
2022/04/09 05:10:31;;;;;;;0.40;0.40;;;17.00;46.90;;;;;;4934631;28;45200;-64
2022/04/09 05:12:59;;;;;;;0.38;0.38;;;17.00;46.90;;;;;;4958455;28;45296;-64
2022/04/09 05:15:24;;;;;;;0.57;0.30;;;17.00;46.90;;;;;;4943980;28;44757;-63
2022/04/09 05:17:50;;;;;;;0.32;0.32;;;17.00;46.90;;;;;;4943933;28;45185;-65
2022/04/09 05:20:16;;;;;;;0.47;0.47;;;17.00;46.90;;;;;;4950205;28;45177;-64
2022/04/09 05:22:46;;;;;;;1.00;0.63;;;17.00;46.90;;;;;;4934618;28;44707;-64
2022/04/09 05:25:13;;;;;;;1.08;0.60;;;17.00;46.90;;;;;;4952384;28;45218;-65
2022/04/09 05:27:39;;;;;;;1.02;0.40;;;17.00;46.90;;;;;;4937977;28;46104;-62
2022/04/09 05:30:06;;;;;;;0.32;0.30;;;17.00;46.90;;;;;;4952947;28;45477;-65
2022/04/09 05:32:31;;;;;;;0.85;0.40;;;17.00;46.80;;;;;;4938513;28;45660;-64
2022/04/09 05:34:57;;;;;;;0.68;0.40;;;16.90;46.80;;;;;;4933554;28;45340;-62
2022/04/09 05:37:23;;;;;;;0.43;0.40;;;16.90;47.40;;;;;;4932640;28;46126;-65
2022/04/09 05:39:48;;;;;;;0.52;0.47;;;16.90;46.80;;;;;;4958092;28;45183;-63
2022/04/09 05:42:14;;;;;;;0.70;0.43;;;16.80;46.90;;;;;;4938777;28;44937;-63
2022/04/09 05:44:39;;;;;;;0.40;0.40;;;16.80;46.90;;;;;;4941761;28;45752;-64
2022/04/09 05:47:05;;;;;;;0.47;0.40;;;16.80;46.90;;;;;;4935744;28;46212;-64
2022/04/09 05:49:31;;;;;;;0.70;0.52;;;16.80;47.00;;;;;;4953525;28;45134;-62
2022/04/09 05:51:57;;;;;;;0.77;0.50;;;16.80;46.90;;;;;;4954493;28;45357;-65
2022/04/09 05:54:23;;;;;;;0.52;0.35;;;16.80;46.90;;;;;;4967073;28;44733;-64
2022/04/09 05:56:49;;;;;;;0.40;0.40;;;16.80;46.90;;;;;;4951876;28;45088;-62
2022/04/09 05:59:15;;;;;;;0.32;0.30;;;16.80;47.00;;;;;;4940455;28;45369;-62
2022/04/09 06:01:40;;;;;;;0.30;0.30;;;16.80;46.90;;;;;;4952698;28;45244;-64
2022/04/09 06:04:07;;;;;;;0.60;0.40;;;16.70;46.90;;;;;;4945346;28;45588;-64
2022/04/09 06:06:33;;;;;;;0.47;0.43;;;16.80;47.00;;;;;;4936959;28;46177;-64
2022/04/09 06:08:58;;;;;;;0.43;0.30;;;16.70;46.90;;;;;;4939562;28;44776;-63
2022/04/09 06:11:24;;;;;;;0.80;0.50;;;16.70;46.90;;;;;;4920519;28;45194;-62
2022/04/09 06:13:50;;;;;;;0.63;0.47;;;16.70;46.90;;;;;;4948392;28;44830;-65
2022/04/09 06:16:16;;;;;;;0.68;0.60;;;16.70;46.90;;;;;;4941285;28;45272;-63
2022/04/09 06:18:42;;;;;;;;;;;16.70;46.90;;;;;;4935765;28;45212;-65
2022/04/09 06:21:08;;;;;;;;;;;16.70;46.80;;;;;;4955531;28;45233;-65
2022/04/09 06:23:33;;;;;;;2.13;0.40;;;16.80;46.70;;;;;;4942126;28;45525;-65
2022/04/09 06:25:59;;;;;;;0.80;0.73;;;16.80;46.50;;;;;;4924882;28;46117;-64
2022/04/09 06:28:25;;;;;;;0.73;0.57;;;16.90;46.50;;;;;;4952060;28;45451;-66
2022/04/09 06:30:51;;;;;;;1.60;0.60;;;16.90;47.10;;;;;;4936841;28;45341;-64
2022/04/09 06:33:17;;;;;;;1.05;0.57;;;17.00;46.40;;;;;;4941757;28;44786;-63
2022/04/09 06:35:42;;;;;;;1.77;0.50;;;17.10;46.50;;;;;;4951928;28;45931;-63
2022/04/09 06:38:08;;;;;;;2.78;0.47;;;17.20;46.30;;;;;;4931497;28;45267;-64
2022/04/09 06:40:33;;;;;;;0.73;0.60;;;17.20;46.20;;;;;;4953370;28;45391;-63
2022/04/09 06:42:59;;;;;;;0.70;0.40;;;17.30;46.20;;;;;;4961587;28;45147;-64
2022/04/09 06:45:25;;;;;;;1.27;0.70;;;17.40;46.70;;;;;;4959622;28;45942;-63
2022/04/09 06:47:51;;;;;;;3.05;0.50;;;17.50;45.90;;;;;;4933870;28;46281;-64
2022/04/09 06:50:20;;;;;;;2.33;0.40;;;17.60;46.00;;;;;;4951244;28;45281;-64
2022/04/09 06:52:45;;;;;;;1.10;0.40;;;17.70;45.90;;;;;;4932181;28;45273;-64
2022/04/09 06:55:11;;;;;;;1.65;0.40;;;17.80;46.30;;;;;;4949088;28;45192;-65
2022/04/09 06:57:41;;;;;;;1.90;0.70;;;17.90;46.00;;;;;;4920839;28;45804;-63
2022/04/09 07:00:11;;;;;;;1.52;0.47;;;18.00;46.10;;;;;;4944601;28;45244;-67
2022/04/09 07:02:37;;;;;;;2.95;0.55;;;18.10;46.20;;;;;;4945715;28;46027;-65
2022/04/09 07:05:02;;;;;;;2.90;0.40;;;18.20;46.00;;;;;;4935108;28;46973;-66
2022/04/09 07:07:29;;;;;;;3.70;0.60;;;18.30;46.20;;;;;;4944587;28;45230;-66
2022/04/09 07:10:02;;;;;;;1.75;0.60;;;18.40;46.00;;;;;;4948625;28;44677;-66
2022/04/09 07:12:27;;;;;;;4.18;0.60;;;18.40;46.10;;;;;;4926539;28;45697;-61
2022/04/09 07:14:53;;;;;;;5.82;0.70;;;18.50;45.80;;;;;;4951627;28;45612;-59
2022/04/09 07:17:20;;;;;;;3.28;0.40;;;18.60;45.70;;;;;;4949319;28;45202;-59
2022/04/09 07:19:45;;;;;;;0.55;0.50;;;18.70;45.50;;;;;;4950394;28;45259;-60
2022/04/09 07:22:11;;;;;;;1.55;0.52;;;18.90;45.30;;;;;;4949620;28;44783;-60
2022/04/09 07:24:37;;;;;;;1.33;0.50;;;19.00;45.10;;;;;;4951438;28;46227;-60
2022/04/09 07:27:03;;;;;;;3.00;0.43;;;19.10;45.00;;;;;;4943089;28;45375;-59
2022/04/09 07:29:29;;;;;;;1.02;0.50;;;19.20;44.90;;;;;;4957201;28;45475;-59
2022/04/09 07:31:54;;;;;;;2.35;0.73;;;19.30;44.80;;;;;;4953698;28;45954;-58
2022/04/09 07:34:20;;;;;;;2.42;0.40;;;19.40;44.70;;;;;;4953244;28;46052;-60
2022/04/09 07:36:46;;;;;;;2.92;0.50;;;19.50;44.50;;;;;;4959694;28;45159;-58
2022/04/09 07:39:11;;;;;;;1.85;0.40;;;19.60;44.40;;;;;;4958251;28;45230;-60
2022/04/09 07:41:37;;;;;;;0.73;0.35;;;19.70;44.30;;;;;;4955053;28;44756;-58
2022/04/09 07:44:03;;;;;;;1.35;0.50;;;19.80;44.20;;;;;;4957304;28;45405;-60
2022/04/09 07:46:28;;;;;;;1.65;0.40;;;19.90;44.10;;;;;;4956782;28;45324;-60
2022/04/09 07:48:54;;;;;;;2.13;0.30;;;20.00;44.10;;;;;;4954449;28;45199;-60
2022/04/09 07:51:19;;;;;;;0.57;0.40;;;20.10;43.90;;;;;;4957161;28;45437;-60
2022/04/09 07:53:45;;;;;;;4.18;0.35;;;20.20;43.80;;;;;;4945991;28;45890;-59
2022/04/09 07:56:10;;;;;;;2.63;0.30;;;20.30;43.70;;;;;;4951310;28;44858;-60
2022/04/09 07:58:36;;;;;;;4.40;0.40;;;20.40;43.60;;;;;;4961205;28;45139;-59
2022/04/09 08:01:02;;;;;;;1.33;0.40;;;20.50;43.50;;;;;;4952368;28;45336;-59
2022/04/09 08:03:27;;;;;;;1.95;0.40;;;20.60;43.40;;;;;;4958767;28;47175;-60
2022/04/09 08:05:53;;;;;;;2.15;0.40;;;20.70;43.30;;;;;;4957988;28;45345;-61
2022/04/09 08:08:18;;;;;;;0.60;0.30;;;20.80;43.20;;;;;;4952748;28;45217;-58
2022/04/09 08:10:44;;;;;;;2.20;0.40;;;20.90;43.00;;;;;;4950062;28;44689;-59
2022/04/09 08:13:09;;;;;;;0.50;0.38;;;21.00;43.00;;;;;;4952593;28;46190;-59
2022/04/09 08:15:35;;;;;;;1.92;0.40;;;21.10;42.90;;;;;;4953997;28;44635;-59
2022/04/09 08:18:07;;;;;;;1.17;0.43;;;21.20;42.70;;;;;;4951039;28;45374;-59
2022/04/09 08:20:33;;;;;;;0.95;0.22;;;21.30;42.60;;;;;;4956294;28;45468;-60
2022/04/09 08:23:00;;;;;;;1.00;0.30;;;21.40;42.60;;;;;;4954973;28;45351;-60
2022/04/09 08:25:26;;;;;;;0.65;0.30;;;21.50;42.50;;;;;;4953318;28;44875;-60
2022/04/09 08:27:52;;;;;;;1.65;0.40;;;21.60;42.50;;;;;;4958402;28;45088;-60
2022/04/09 08:30:18;;;;;;;0.47;0.30;;;21.70;42.40;;;;;;4956575;28;45270;-58
2022/04/09 08:32:44;;;;;;;2.90;0.30;;;21.70;42.20;;;;;;4947167;28;45940;-58
2022/04/09 08:35:09;;;;;;;1.83;0.30;;;21.90;42.30;;;;;;4946444;28;45449;-59
2022/04/09 08:37:35;;;;;;;0.75;0.30;;;21.90;42.20;;;;;;4955145;28;45271;-59
2022/04/09 08:40:02;;;;;;;0.52;0.20;;;22.00;42.00;;;;;;4949238;28;45231;-59
2022/04/09 08:42:28;;;;;;;2.08;0.28;;;22.10;42.00;;;;;;4951681;28;46104;-61
2022/04/09 08:44:54;;;;;;;1.13;0.50;;;22.20;41.80;;;;;;4920847;28;44777;-56
2022/04/09 08:47:23;;;;;;;0.63;0.30;;;22.20;41.70;;;;;;4947564;28;45242;-66
2022/04/09 08:49:48;;;;;;;0.47;0.30;;;22.30;41.70;;;;;;4949895;28;45314;-61
2022/04/09 08:52:15;;;;;;;0.93;0.20;;;22.40;41.60;;;;;;4955352;28;45303;-59
2022/04/09 08:54:41;;;;;;;0.45;0.30;;;22.50;41.50;;;;;;4947691;28;45306;-59
2022/04/09 08:57:07;;;;;;;2.38;0.30;;;22.60;41.50;;;;;;4947918;28;45707;-59
2022/04/09 08:59:32;;;;;;;0.95;0.30;;;22.60;41.30;;;;;;4929512;28;44896;-59
2022/04/09 09:01:58;;;;;;;2.13;0.30;;;22.70;41.30;;;;;;4948505;28;45520;-61
2022/04/09 09:04:24;;;;;;;1.45;0.30;;;22.80;41.10;;;;;;4951692;28;44938;-59
2022/04/09 09:06:49;;;;;;;0.75;0.20;;;22.90;41.80;;;;;;4950226;28;45765;-56
2022/04/09 09:09:29;;;;;;;0.60;0.30;;;22.90;41.10;;;;;;4950935;28;45180;-61
2022/04/09 09:11:55;;;;;;;1.00;0.20;;;23.00;40.60;;;;;;4934754;28;46089;-61
2022/04/09 09:14:25;;;;;;;0.98;0.20;;;23.10;41.00;;;;;;4927873;28;44957;-59
2022/04/09 09:16:51;;;;;;;0.73;0.30;;;23.10;40.80;;;;;;4952866;28;45213;-59
2022/04/09 09:19:17;;;;;;;0.77;0.30;;;23.10;40.80;;;;;;4945503;28;45516;-61
2022/04/09 09:21:53;;;;;;;0.20;0.10;;;23.20;40.70;;;;;;4949609;28;46119;-61
2022/04/09 09:24:19;;;;;;;0.32;0.30;;;23.30;40.40;;;;;;4946364;28;45350;-60
2022/04/09 09:26:56;;;;;;;1.58;0.30;;;23.30;40.70;;;;;;4943649;28;45519;-59
2022/04/09 09:29:27;;;;;;;0.45;0.30;;;23.40;40.40;;;;;;4949369;28;44960;-61
2022/04/09 09:31:53;;;;;;;0.50;0.20;;;23.40;40.50;;;;;;4950355;28;45969;-60
2022/04/09 09:34:19;;;;;;;1.27;0.25;;;23.40;40.50;;;;;;4946869;28;45053;-58
2022/04/09 09:36:45;;;;;;;0.93;0.30;;;23.50;40.40;;;;;;4954001;28;45260;-56
2022/04/09 09:39:14;;;;;;;3.30;0.20;;;23.60;40.30;;;;;;4949330;28;45287;-57
2022/04/09 09:41:56;;;;;;;0.68;0.40;;;23.70;40.00;;;;;;4944938;28;46039;-57
2022/04/09 09:44:26;;;;;;;3.05;0.30;;;23.70;39.70;;;;;;4946548;28;45348;-58
2022/04/09 09:46:53;;;;;;;0.95;0.30;;;23.70;40.00;;;;;;4945536;28;45428;-59
2022/04/09 09:49:22;;;;;;;0.73;0.20;;;23.80;39.80;;;;;;4948445;28;45198;-56
2022/04/09 09:52:08;;;;;;;0.77;0.30;;;23.80;39.90;;;;;;4942107;28;45897;-58
2022/04/09 09:54:34;;;;;;;1.40;0.30;;;23.80;39.30;;;;;;4931890;28;45582;-58
2022/04/09 09:57:00;;;;;;;2.20;0.20;;;23.80;39.90;;;;;;4941556;28;45369;-58
2022/04/09 09:59:27;;;;;;;0.88;0.20;;;23.80;39.90;;;;;;4947058;28;45484;-57
2022/04/09 10:01:54;;;;;;;1.90;0.30;;;23.80;39.80;;;;;;4947514;28;44921;-58
2022/04/09 10:04:20;;;;;;;2.97;0.25;;;23.80;39.70;;;;;;4940160;28;46189;-57
2022/04/09 10:06:45;;;;;;;0.95;0.32;;;23.80;39.80;;;;;;4949474;28;45263;-59
2022/04/09 10:09:14;;;;;;;0.60;0.20;;;23.90;39.80;;;;;;4941709;28;45558;-58
2022/04/09 10:11:49;;;;;;;0.52;0.32;;;23.80;39.60;;;;;;4949741;28;46160;-58
2022/04/09 10:14:17;;;;;;;1.13;0.30;;;23.90;39.60;;;;;;4934588;28;45635;-61
2022/04/09 10:16:43;;;;;;;3.30;0.30;;;23.90;39.60;;;;;;4949483;28;44977;-57
2022/04/09 10:19:09;;;;;;;0.80;0.20;;;24.00;39.50;;;;;;4952439;28;45101;-58
2022/04/09 10:21:35;;;;;;;2.53;0.20;;;24.00;39.60;;;;;;4902135;28;46164;-58
2022/04/09 10:24:04;;;;;;;3.13;0.20;;;24.00;39.60;;;;;;4933405;28;45336;-58
2022/04/09 10:26:29;;;;;;;0.28;0.28;;;24.00;39.50;;;;;;4935065;28;45338;-58
2022/04/09 10:29:06;;;;;;;1.20;0.20;;;24.00;40.10;;;;;;4934993;28;45414;-59
2022/04/09 10:31:32;;;;;;;2.65;0.30;;;24.00;39.10;;;;;;4949034;28;45530;-58
2022/04/09 10:33:59;;;;;;;1.25;0.30;;;24.00;40.00;;;;;;4949563;28;45533;-58
2022/04/09 10:36:46;;;;;;;0.30;0.20;;;24.10;39.40;;;;;;4934293;28;45558;-59
2022/04/09 10:39:42;;;;;;;0.17;0.10;;;24.10;38.80;;;;;;4953038;28;45628;-58
2022/04/09 10:42:08;;;;;;;0.50;0.30;;;24.10;38.80;;;;;;4932172;28;47094;-59
2022/04/09 10:44:37;;;;;;;0.35;0.25;;;24.10;39.20;;;;;;4934554;28;45314;-57
2022/04/09 10:47:03;;;;;;;1.55;0.40;;;24.20;39.20;;;;;;4950332;28;45325;-59
2022/04/09 10:49:29;;;;;;;2.70;0.28;;;24.20;39.20;;;;;;4950373;28;45729;-54
2022/04/09 10:52:03;;;;;;;0.60;0.25;;;24.20;39.10;;;;;;4934778;28;45390;-59
2022/04/09 10:54:29;;;;;;;0.60;0.30;;;24.30;38.80;;;;;;4949455;28;45442;-57
2022/04/09 10:56:55;;;;;;;1.25;0.25;;;24.30;39.10;;;;;;4903054;28;45217;-58
2022/04/09 10:59:20;;;;;;;0.20;0.20;;;24.30;39.00;;;;;;4930841;28;45530;-57
2022/04/09 11:01:46;;;;;;;0.30;0.20;;;24.30;39.00;;;;;;4954444;28;46339;-58
2022/04/09 11:04:27;;;;;;;0.50;0.20;;;24.30;39.00;;;;;;4956454;28;44661;-59
2022/04/09 11:07:11;;;;;;;1.35;0.25;;;24.40;38.40;;;;;;4959750;28;45386;-58
2022/04/09 11:09:49;;;;;;;0.30;0.20;;;24.40;38.50;;;;;;4947637;28;45465;-59
2022/04/09 11:12:19;;;;;;;1.00;0.20;;;24.40;38.60;;;;;;4948458;28;46200;-60
2022/04/09 11:14:58;;;;;;;0.50;0.20;;;24.40;38.80;;;;;;4937238;28;45385;-60
2022/04/09 11:17:33;;;;;;;0.13;0.10;;;24.50;38.50;;;;;;4921311;28;44791;-62
2022/04/09 11:20:10;;;;;;;0.60;0.20;;;24.40;38.70;;;;;;4932746;28;45299;-60
2022/04/09 11:22:40;;;;;;;0.65;0.20;;;24.40;38.40;;;;;;4949315;28;45243;-61
2022/04/09 11:25:07;;;;;;;0.82;0.30;;;24.40;38.60;;;;;;4955467;28;45103;-60
2022/04/09 11:27:33;;;;;;;0.75;0.15;;;24.40;38.80;;;;;;4934023;28;45260;-60
2022/04/09 11:29:58;;;;;;;0.50;0.20;;;24.30;38.90;;;;;;4955024;28;45343;-61
2022/04/09 11:32:25;;;;;;;1.95;0.30;;;24.20;38.90;;;;;;4955098;28;46213;-60
2022/04/09 11:34:57;;;;;;;1.25;0.38;;;24.10;39.00;;;;;;4938086;28;45231;-61
2022/04/09 11:37:24;;;;;;;0.25;0.20;;;24.10;39.00;;;;;;4938522;28;45347;-61
2022/04/09 11:39:50;;;;;;;1.45;0.25;;;24.00;39.20;;;;;;4954327;28;45741;-61
2022/04/09 11:42:16;;;;;;;0.45;0.30;;;24.00;39.30;;;;;;4955663;28;46010;-61
2022/04/09 11:44:42;;;;;;;0.65;0.30;;;23.90;39.40;;;;;;4943379;28;45264;-60
2022/04/09 11:47:23;;;;;;;1.02;0.30;;;23.90;39.40;;;;;;4958261;28;45230;-60
2022/04/09 11:49:49;;;;;;;1.13;0.30;;;23.80;39.10;;;;;;4959111;28;45226;-62
2022/04/09 11:52:28;;;;;;;1.33;0.43;;;23.80;39.50;;;;;;4948675;28;46857;-62
2022/04/09 11:54:54;;;;;;;0.40;0.20;;;23.70;39.20;;;;;;4954679;28;44866;-60
2022/04/09 11:57:20;;;;;;;0.52;0.30;;;23.70;39.60;;;;;;4951588;28;45068;-61
2022/04/09 11:59:53;;;;;;;2.72;0.40;;;23.60;39.60;;;;;;4938611;28;45550;-62
2022/04/09 12:02:19;;;;;;;0.40;0.20;;;23.60;39.50;;;;;;4951919;28;46122;-61
2022/04/09 12:04:45;;;;;;;1.08;0.30;;;23.50;39.70;;;;;;4950053;28;45168;-59
2022/04/09 12:07:11;;;;;;;1.42;0.30;;;23.50;39.80;;;;;;4960288;28;45392;-61
2022/04/09 12:09:36;;;;;;;0.38;0.30;;;23.40;39.80;;;;;;4934929;28;45236;-61
2022/04/09 12:12:02;;;;;;;0.75;0.40;;;23.40;39.80;;;;;;4956083;28;44959;-60
2022/04/09 12:14:28;;;;;;;1.27;0.30;;;23.30;39.90;;;;;;4935861;28;45168;-60
2022/04/09 12:16:54;;;;;;;1.20;0.28;;;23.30;39.90;;;;;;4949767;28;45242;-61
2022/04/09 12:19:29;;;;;;;1.75;0.63;;;23.30;39.90;;;;;;4943090;28;45418;-61
2022/04/09 12:21:55;;;;;;;1.08;0.43;;;23.20;40.10;;;;;;4949653;28;45503;-60
2022/04/09 12:24:21;;;;;;;0.52;0.20;;;23.20;40.00;;;;;;4953546;28;45127;-60
2022/04/09 12:26:53;;;;;;;1.42;0.32;;;23.10;40.10;;;;;;4948264;28;45226;-61
2022/04/09 12:29:26;;;;;;;0.35;0.20;;;23.10;40.10;;;;;;4956432;28;45259;-59
2022/04/09 12:32:12;;;;;;;0.43;0.30;;;23.10;40.20;;;;;;4957722;28;45271;-61
2022/04/09 12:34:57;;;;;;;1.38;0.50;;;23.00;40.10;;;;;;4957535;28;45348;-61
2022/04/09 12:37:23;;;;;;;1.83;0.30;;;22.90;40.10;;;;;;4957521;28;45136;-60
2022/04/09 12:39:49;;;;;;;0.70;0.30;;;22.90;40.30;;;;;;4959084;28;44748;-59
2022/04/09 12:42:15;;;;;;;0.60;0.20;;;22.90;40.40;;;;;;4948423;28;46195;-60
2022/04/09 12:44:43;;;;;;;0.82;0.40;;;22.80;40.40;;;;;;4953237;28;44658;-62
2022/04/09 12:47:08;;;;;;;0.50;0.25;;;22.80;40.40;;;;;;4949146;28;45579;-62
2022/04/09 12:49:38;;;;;;;1.70;0.50;;;22.80;40.50;;;;;;4957477;28;45661;-62
2022/04/09 12:52:05;;;;;;;0.65;0.20;;;22.80;40.50;;;;;;4951715;28;45501;-61
2022/04/09 12:54:32;;;;;;;1.67;0.55;;;22.70;40.60;;;;;;4959943;28;44868;-59
2022/04/09 12:57:08;;;;;;;0.50;0.35;;;22.70;40.60;;;;;;4957348;28;45227;-61
2022/04/09 12:59:34;;;;;;;0.57;0.20;;;22.70;40.60;;;;;;4953732;28;45128;-58
2022/04/09 13:02:00;;;;;;;1.65;0.40;;;22.60;40.60;;;;;;4958513;28;46170;-62
2022/04/09 13:04:25;;;;;;;0.55;0.30;;;22.60;40.70;;;;;;4931259;28;44710;-61
2022/04/09 13:06:51;;;;;;;1.38;0.40;;;22.50;40.70;;;;;;4949849;28;44720;-61
2022/04/09 13:09:16;;;;;;;1.20;0.55;;;22.50;40.80;;;;;;4939837;28;46219;-59
2022/04/09 13:11:42;;;;;;;0.82;0.32;;;22.50;40.90;;;;;;4951307;28;45661;-61
2022/04/09 13:14:08;;;;;;;1.95;0.30;;;22.50;40.90;;;;;;4949659;28;44925;-59
2022/04/09 13:16:33;;;;;;;0.43;0.20;;;22.40;40.80;;;;;;4953093;28;45210;-60
2022/04/09 13:18:59;;;;;;;3.55;0.30;;;22.40;40.90;;;;;;4954034;28;45248;-61
2022/04/09 13:21:25;;;;;;;0.50;0.28;;;22.40;40.90;;;;;;4935992;28;46042;-60
2022/04/09 13:23:50;;;;;;;0.77;0.40;;;22.30;41.00;;;;;;4955952;28;44815;-61
2022/04/09 13:26:16;;;;;;;1.77;0.50;;;22.30;41.00;;;;;;4947743;28;45460;-60
2022/04/09 13:28:41;;;;;;;0.20;0.20;;;22.30;41.00;;;;;;4948364;28;45570;-60
2022/04/09 13:31:07;;;;;;;4.30;0.50;;;22.20;41.00;;;;;;4946507;28;45889;-61
2022/04/09 13:33:32;;;;;;;1.15;0.40;;;22.20;41.10;;;;;;4951485;28;45238;-60
2022/04/09 13:35:58;;;;;;;1.30;0.50;;;22.20;41.20;;;;;;4951014;28;45176;-60
2022/04/09 13:38:24;;;;;;;1.65;0.50;;;22.20;41.20;;;;;;4948370;28;45624;-61
2022/04/09 13:40:49;;;;;;;0.80;0.30;;;22.10;41.20;;;;;;4952715;28;46186;-61
2022/04/09 13:43:15;;;;;;;1.23;0.30;;;22.10;41.20;;;;;;4952125;28;45334;-61
2022/04/09 13:45:42;;;;;;;0.50;0.30;;;22.10;41.20;;;;;;4955461;28;45170;-59
2022/04/09 13:48:08;;;;;;;1.92;0.40;;;22.10;41.30;;;;;;4951218;28;45671;-60
2022/04/09 13:50:34;;;;;;;1.52;0.50;;;22.00;41.30;;;;;;4950754;28;46119;-60
2022/04/09 13:53:00;;;;;;;0.22;0.13;;;22.00;41.30;;;;;;4944208;28;45136;-60
2022/04/09 13:55:25;;;;;;;0.93;0.50;;;22.00;41.40;;;;;;4957359;28;45168;-58
2022/04/09 13:57:51;;;;;;;0.70;0.55;;;22.00;41.40;;;;;;4958736;28;45187;-58
2022/04/09 14:00:17;;;;;;;0.50;0.40;;;22.00;41.40;;;;;;4953789;28;47152;-61
2022/04/09 14:02:42;;;;;;;0.25;0.25;;;22.00;41.50;;;;;;4949309;28;45275;-61
2022/04/09 14:05:08;;;;;;;0.30;0.30;;;21.90;41.40;;;;;;4952535;28;45765;-58
2022/04/09 14:07:34;;;;;;;1.48;0.60;;;21.90;41.50;;;;;;4947797;28;45519;-59
2022/04/09 14:10:00;;;;;;;0.57;0.40;;;21.90;41.60;;;;;;4955616;28;46237;-56
2022/04/09 14:12:25;;;;;;;1.08;0.50;;;21.90;41.60;;;;;;4955035;28;45391;-61
2022/04/09 14:14:51;;;;;;;0.88;0.40;;;21.80;41.60;;;;;;4963775;28;45143;-61
2022/04/09 14:17:17;;;;;;;1.50;0.40;;;21.80;41.60;;;;;;4953235;28;45248;-61
2022/04/09 14:19:42;;;;;;;1.02;0.52;;;21.80;41.70;;;;;;4958185;28;45236;-62
2022/04/09 14:22:08;;;;;;;0.93;0.30;;;21.80;41.80;;;;;;4924913;28;45312;-62
2022/04/09 14:24:34;;;;;;;0.93;0.30;;;21.70;41.80;;;;;;4957174;28;45557;-61
2022/04/09 14:27:00;;;;;;;1.75;0.43;;;21.70;41.80;;;;;;4954607;28;45373;-61
2022/04/09 14:29:25;;;;;;;1.85;0.30;;;21.70;41.80;;;;;;4951434;28;45993;-60
2022/04/09 14:31:51;;;;;;;1.58;0.50;;;21.70;41.80;;;;;;4956654;28;45268;-60
2022/04/09 14:34:16;;;;;;;2.55;0.47;;;21.60;41.80;;;;;;4937789;28;45613;-61
2022/04/09 14:36:42;;;;;;;1.92;0.40;;;21.60;41.80;;;;;;4953676;28;45255;-61
2022/04/09 14:39:08;;;;;;;0.93;0.52;;;21.60;41.90;;;;;;4952754;28;46177;-60
2022/04/09 14:41:34;;;;;;;0.98;0.50;;;21.60;41.90;;;;;;4957601;28;45185;-62
2022/04/09 14:44:00;;;;;;;0.65;0.40;;;21.60;42.00;;;;;;4939289;28;45243;-62
2022/04/09 14:46:26;;;;;;;1.45;0.40;;;21.50;41.90;;;;;;4938609;28;45323;-61
2022/04/09 14:48:51;;;;;;;1.45;0.50;;;21.50;42.00;;;;;;4936421;28;46171;-63
2022/04/09 14:51:17;;;;;;;1.05;0.50;;;21.50;42.00;;;;;;4956820;28;44717;-62
2022/04/09 14:53:43;;;;;;;0.93;0.30;;;21.50;42.10;;;;;;4955987;28;45184;-60
2022/04/09 14:56:09;;;;;;;0.65;0.50;;;21.50;42.10;;;;;;4957173;28;45256;-59
2022/04/09 14:58:36;;;;;;;0.77;0.43;;;21.50;42.20;;;;;;4964749;28;46951;-61
2022/04/09 15:01:03;;;;;;;0.77;0.43;;;21.50;42.20;;;;;;4957626;28;44701;-60
2022/04/09 15:03:28;;;;;;;0.80;0.32;;;21.40;42.20;;;;;;4952887;28;45892;-60
2022/04/09 15:05:54;;;;;;;1.15;0.43;;;21.40;42.20;;;;;;4955044;28;44752;-60
2022/04/09 15:08:19;;;;;;;1.92;0.50;;;21.40;42.20;;;;;;4958916;28;46329;-61
2022/04/09 15:10:45;;;;;;;1.35;0.60;;;21.40;42.30;;;;;;4955762;28;45533;-62
2022/04/09 15:13:11;;;;;;;0.70;0.38;;;21.30;42.30;;;;;;4936567;28;45304;-60
2022/04/09 15:15:36;;;;;;;2.50;0.50;;;21.30;42.30;;;;;;4941690;28;45492;-61
2022/04/09 15:18:05;;;;;;;1.10;0.30;;;21.30;42.30;;;;;;4941526;28;45997;-60
2022/04/09 15:20:30;;;;;;;0.70;0.50;;;21.30;43.00;;;;;;4940676;28;45333;-62
2022/04/09 15:22:56;;;;;;;0.95;0.40;;;21.20;42.40;;;;;;4930491;28;45199;-61
2022/04/09 15:25:22;;;;;;;1.10;0.30;;;21.20;42.40;;;;;;4957233;28;44684;-62
2022/04/09 15:27:47;;;;;;;0.85;0.40;;;21.20;42.40;;;;;;4953419;28;46588;-59
2022/04/09 15:30:13;;;;;;;1.70;0.38;;;21.20;42.50;;;;;;4955730;28;45266;-63
2022/04/09 15:32:38;;;;;;;0.77;0.35;;;21.20;42.40;;;;;;4952609;28;45343;-63
2022/04/09 15:35:08;;;;;;;1.05;0.52;;;21.20;43.10;;;;;;4935787;28;45810;-57
2022/04/09 15:37:33;;;;;;;0.60;0.30;;;21.20;42.60;;;;;;4951261;28;47074;-59
2022/04/09 15:39:59;;;;;;;0.50;0.35;;;21.20;42.60;;;;;;4947443;28;45554;-61
2022/04/09 15:42:25;;;;;;;1.15;0.50;;;21.10;42.60;;;;;;4954447;28;45395;-57
2022/04/09 15:44:51;;;;;;;1.38;0.60;;;21.10;42.70;;;;;;4950934;28;45179;-58
2022/04/09 15:47:17;;;;;;;0.47;0.32;;;21.10;42.70;;;;;;4950870;28;46052;-59